sensor_id;sensor_type;location;lat;lon;timestamp;P1;durP1;ratioP1;P2;durP2;ratioP2
59338;SDS011;45117;50.960;5.500;2023-04-25T00:02:04;15.07;;;5.22;;
59338;SDS011;45117;50.960;5.500;2023-04-25T00:04:31;16.88;;;4.90;;
59338;SDS011;45117;50.960;5.500;2023-04-25T00:07:00;15.13;;;4.82;;
59338;SDS011;45117;50.960;5.500;2023-04-25T00:09:27;15.18;;;5.18;;
59338;SDS011;45117;50.960;5.500;2023-04-25T00:11:54;13.95;;;4.28;;
59338;SDS011;45117;50.960;5.500;2023-04-25T00:14:20;16.80;;;4.80;;
59338;SDS011;45117;50.960;5.500;2023-04-25T00:16:48;18.58;;;4.85;;
59338;SDS011;45117;50.960;5.500;2023-04-25T00:19:16;14.10;;;4.60;;
59338;SDS011;45117;50.960;5.500;2023-04-25T00:21:43;17.65;;;4.50;;
59338;SDS011;45117;50.960;5.500;2023-04-25T00:24:12;14.88;;;4.43;;
59338;SDS011;45117;50.960;5.500;2023-04-25T00:26:39;17.55;;;5.00;;
59338;SDS011;45117;50.960;5.500;2023-04-25T00:29:05;16.27;;;4.72;;
59338;SDS011;45117;50.960;5.500;2023-04-25T00:31:32;18.17;;;4.85;;
59338;SDS011;45117;50.960;5.500;2023-04-25T00:33:58;16.25;;;4.18;;
59338;SDS011;45117;50.960;5.500;2023-04-25T00:36:25;18.00;;;4.75;;
59338;SDS011;45117;50.960;5.500;2023-04-25T00:38:52;20.73;;;4.93;;
59338;SDS011;45117;50.960;5.500;2023-04-25T00:41:23;14.77;;;4.40;;
59338;SDS011;45117;50.960;5.500;2023-04-25T00:43:51;16.33;;;4.28;;
59338;SDS011;45117;50.960;5.500;2023-04-25T00:46:19;21.33;;;4.88;;
59338;SDS011;45117;50.960;5.500;2023-04-25T00:48:46;17.63;;;4.20;;
59338;SDS011;45117;50.960;5.500;2023-04-25T00:51:13;21.60;;;4.47;;
59338;SDS011;45117;50.960;5.500;2023-04-25T00:53:45;16.23;;;4.05;;
59338;SDS011;45117;50.960;5.500;2023-04-25T00:56:12;18.85;;;4.43;;
59338;SDS011;45117;50.960;5.500;2023-04-25T00:58:40;14.45;;;3.90;;
59338;SDS011;45117;50.960;5.500;2023-04-25T01:01:09;16.02;;;3.80;;
59338;SDS011;45117;50.960;5.500;2023-04-25T01:03:37;13.90;;;3.78;;
59338;SDS011;45117;50.960;5.500;2023-04-25T01:06:06;18.02;;;4.10;;
59338;SDS011;45117;50.960;5.500;2023-04-25T01:08:34;13.27;;;3.60;;
59338;SDS011;45117;50.960;5.500;2023-04-25T01:11:00;15.70;;;3.90;;
59338;SDS011;45117;50.960;5.500;2023-04-25T01:13:27;16.33;;;4.03;;
59338;SDS011;45117;50.960;5.500;2023-04-25T01:15:55;17.60;;;4.18;;
59338;SDS011;45117;50.960;5.500;2023-04-25T01:18:21;16.02;;;4.57;;
59338;SDS011;45117;50.960;5.500;2023-04-25T01:20:48;16.73;;;3.72;;
59338;SDS011;45117;50.960;5.500;2023-04-25T01:23:18;14.73;;;3.90;;
59338;SDS011;45117;50.960;5.500;2023-04-25T01:25:45;17.42;;;3.85;;
59338;SDS011;45117;50.960;5.500;2023-04-25T01:28:13;13.02;;;3.95;;
59338;SDS011;45117;50.960;5.500;2023-04-25T01:30:40;16.23;;;3.60;;
59338;SDS011;45117;50.960;5.500;2023-04-25T01:33:07;18.48;;;4.18;;
59338;SDS011;45117;50.960;5.500;2023-04-25T01:35:34;17.98;;;3.92;;
59338;SDS011;45117;50.960;5.500;2023-04-25T01:38:01;14.23;;;4.40;;
59338;SDS011;45117;50.960;5.500;2023-04-25T01:40:29;10.07;;;3.70;;
59338;SDS011;45117;50.960;5.500;2023-04-25T01:42:56;18.10;;;4.07;;
59338;SDS011;45117;50.960;5.500;2023-04-25T01:45:22;18.55;;;4.00;;
59338;SDS011;45117;50.960;5.500;2023-04-25T01:47:49;17.02;;;4.45;;
59338;SDS011;45117;50.960;5.500;2023-04-25T01:50:16;18.45;;;3.78;;
59338;SDS011;45117;50.960;5.500;2023-04-25T01:52:43;17.48;;;4.03;;
59338;SDS011;45117;50.960;5.500;2023-04-25T01:55:11;20.30;;;4.25;;
59338;SDS011;45117;50.960;5.500;2023-04-25T01:57:39;13.27;;;3.90;;
59338;SDS011;45117;50.960;5.500;2023-04-25T02:00:06;20.88;;;4.38;;
59338;SDS011;45117;50.960;5.500;2023-04-25T02:02:33;14.02;;;3.97;;
59338;SDS011;45117;50.960;5.500;2023-04-25T02:05:00;17.60;;;4.65;;
59338;SDS011;45117;50.960;5.500;2023-04-25T02:07:27;11.05;;;4.07;;
59338;SDS011;45117;50.960;5.500;2023-04-25T02:09:53;17.50;;;3.97;;
59338;SDS011;45117;50.960;5.500;2023-04-25T02:12:20;14.20;;;4.15;;
59338;SDS011;45117;50.960;5.500;2023-04-25T02:14:48;17.58;;;4.03;;
59338;SDS011;45117;50.960;5.500;2023-04-25T02:17:14;16.00;;;3.78;;
59338;SDS011;45117;50.960;5.500;2023-04-25T02:19:41;15.32;;;4.28;;
59338;SDS011;45117;50.960;5.500;2023-04-25T02:22:07;15.35;;;4.03;;
59338;SDS011;45117;50.960;5.500;2023-04-25T02:24:34;12.85;;;3.90;;
59338;SDS011;45117;50.960;5.500;2023-04-25T02:27:00;17.85;;;4.70;;
59338;SDS011;45117;50.960;5.500;2023-04-25T02:29:27;15.85;;;3.92;;
59338;SDS011;45117;50.960;5.500;2023-04-25T02:31:55;14.05;;;4.22;;
59338;SDS011;45117;50.960;5.500;2023-04-25T02:34:21;14.80;;;4.15;;
59338;SDS011;45117;50.960;5.500;2023-04-25T02:36:48;16.35;;;3.80;;
59338;SDS011;45117;50.960;5.500;2023-04-25T02:39:15;24.85;;;4.40;;
59338;SDS011;45117;50.960;5.500;2023-04-25T02:41:42;16.13;;;4.30;;
59338;SDS011;45117;50.960;5.500;2023-04-25T02:44:08;16.90;;;4.00;;
59338;SDS011;45117;50.960;5.500;2023-04-25T02:46:35;14.13;;;4.30;;
59338;SDS011;45117;50.960;5.500;2023-04-25T02:49:03;18.85;;;4.72;;
59338;SDS011;45117;50.960;5.500;2023-04-25T02:51:30;26.27;;;4.85;;
59338;SDS011;45117;50.960;5.500;2023-04-25T02:53:56;17.38;;;4.38;;
59338;SDS011;45117;50.960;5.500;2023-04-25T02:56:23;19.67;;;4.50;;
59338;SDS011;45117;50.960;5.500;2023-04-25T02:58:51;13.75;;;3.88;;
59338;SDS011;45117;50.960;5.500;2023-04-25T03:01:18;13.40;;;3.63;;
59338;SDS011;45117;50.960;5.500;2023-04-25T03:03:45;16.38;;;3.95;;
59338;SDS011;45117;50.960;5.500;2023-04-25T03:06:12;15.15;;;4.03;;
59338;SDS011;45117;50.960;5.500;2023-04-25T03:08:39;18.00;;;4.57;;
59338;SDS011;45117;50.960;5.500;2023-04-25T03:11:06;13.15;;;4.05;;
59338;SDS011;45117;50.960;5.500;2023-04-25T03:13:32;20.80;;;4.32;;
59338;SDS011;45117;50.960;5.500;2023-04-25T03:15:59;16.45;;;4.57;;
59338;SDS011;45117;50.960;5.500;2023-04-25T03:18:25;17.77;;;5.00;;
59338;SDS011;45117;50.960;5.500;2023-04-25T03:20:52;20.83;;;5.05;;
59338;SDS011;45117;50.960;5.500;2023-04-25T03:23:20;17.45;;;4.57;;
59338;SDS011;45117;50.960;5.500;2023-04-25T03:25:46;15.77;;;4.45;;
59338;SDS011;45117;50.960;5.500;2023-04-25T03:28:13;16.02;;;4.80;;
59338;SDS011;45117;50.960;5.500;2023-04-25T03:30:39;21.63;;;5.13;;
59338;SDS011;45117;50.960;5.500;2023-04-25T03:33:06;18.67;;;4.80;;
59338;SDS011;45117;50.960;5.500;2023-04-25T03:35:32;22.17;;;4.75;;
59338;SDS011;45117;50.960;5.500;2023-04-25T03:37:59;16.42;;;4.68;;
59338;SDS011;45117;50.960;5.500;2023-04-25T03:40:27;17.90;;;4.57;;
59338;SDS011;45117;50.960;5.500;2023-04-25T03:42:53;14.82;;;4.43;;
59338;SDS011;45117;50.960;5.500;2023-04-25T03:45:20;19.67;;;5.15;;
59338;SDS011;45117;50.960;5.500;2023-04-25T03:47:46;16.83;;;4.70;;
59338;SDS011;45117;50.960;5.500;2023-04-25T03:50:12;17.13;;;4.70;;
59338;SDS011;45117;50.960;5.500;2023-04-25T03:52:39;18.02;;;4.30;;
59338;SDS011;45117;50.960;5.500;2023-04-25T03:55:06;17.33;;;4.85;;
59338;SDS011;45117;50.960;5.500;2023-04-25T03:57:34;18.45;;;5.28;;
59338;SDS011;45117;50.960;5.500;2023-04-25T04:00:00;17.75;;;4.65;;
59338;SDS011;45117;50.960;5.500;2023-04-25T04:02:29;23.15;;;4.72;;
59338;SDS011;45117;50.960;5.500;2023-04-25T04:04:55;21.38;;;5.13;;
59338;SDS011;45117;50.960;5.500;2023-04-25T04:07:22;19.63;;;5.35;;
59338;SDS011;45117;50.960;5.500;2023-04-25T04:09:48;25.80;;;4.97;;
59338;SDS011;45117;50.960;5.500;2023-04-25T04:12:15;20.67;;;4.90;;
59338;SDS011;45117;50.960;5.500;2023-04-25T04:14:42;18.33;;;5.35;;
59338;SDS011;45117;50.960;5.500;2023-04-25T04:17:09;26.75;;;5.65;;
59338;SDS011;45117;50.960;5.500;2023-04-25T04:19:35;22.77;;;4.68;;
59338;SDS011;45117;50.960;5.500;2023-04-25T04:22:02;23.52;;;5.07;;
59338;SDS011;45117;50.960;5.500;2023-04-25T04:24:29;18.95;;;4.90;;
59338;SDS011;45117;50.960;5.500;2023-04-25T04:26:55;16.52;;;5.10;;
59338;SDS011;45117;50.960;5.500;2023-04-25T04:29:22;19.38;;;5.38;;
59338;SDS011;45117;50.960;5.500;2023-04-25T04:31:50;25.83;;;5.10;;
59338;SDS011;45117;50.960;5.500;2023-04-25T04:34:17;21.73;;;5.10;;
59338;SDS011;45117;50.960;5.500;2023-04-25T04:36:44;20.08;;;5.18;;
59338;SDS011;45117;50.960;5.500;2023-04-25T04:39:11;26.67;;;5.38;;
59338;SDS011;45117;50.960;5.500;2023-04-25T04:41:38;22.90;;;5.13;;
59338;SDS011;45117;50.960;5.500;2023-04-25T04:44:05;22.25;;;5.57;;
59338;SDS011;45117;50.960;5.500;2023-04-25T04:46:33;18.17;;;6.15;;
59338;SDS011;45117;50.960;5.500;2023-04-25T04:49:04;16.73;;;5.85;;
59338;SDS011;45117;50.960;5.500;2023-04-25T04:51:30;22.23;;;5.55;;
59338;SDS011;45117;50.960;5.500;2023-04-25T04:53:57;24.02;;;6.30;;
59338;SDS011;45117;50.960;5.500;2023-04-25T04:56:27;17.48;;;5.50;;
59338;SDS011;45117;50.960;5.500;2023-04-25T04:58:54;25.85;;;6.43;;
59338;SDS011;45117;50.960;5.500;2023-04-25T05:01:20;20.90;;;6.00;;
59338;SDS011;45117;50.960;5.500;2023-04-25T05:03:47;28.10;;;6.82;;
59338;SDS011;45117;50.960;5.500;2023-04-25T05:06:15;22.52;;;7.20;;
59338;SDS011;45117;50.960;5.500;2023-04-25T05:08:45;17.13;;;5.13;;
59338;SDS011;45117;50.960;5.500;2023-04-25T05:11:11;23.88;;;5.25;;
59338;SDS011;45117;50.960;5.500;2023-04-25T05:13:39;16.95;;;5.18;;
59338;SDS011;45117;50.960;5.500;2023-04-25T05:16:06;19.10;;;5.13;;
59338;SDS011;45117;50.960;5.500;2023-04-25T05:18:32;20.58;;;5.13;;
59338;SDS011;45117;50.960;5.500;2023-04-25T05:20:59;18.45;;;4.75;;
59338;SDS011;45117;50.960;5.500;2023-04-25T05:23:27;27.55;;;5.40;;
59338;SDS011;45117;50.960;5.500;2023-04-25T05:25:55;25.48;;;5.50;;
59338;SDS011;45117;50.960;5.500;2023-04-25T05:28:21;22.30;;;5.45;;
59338;SDS011;45117;50.960;5.500;2023-04-25T05:30:48;20.73;;;5.18;;
59338;SDS011;45117;50.960;5.500;2023-04-25T05:33:15;20.40;;;5.15;;
59338;SDS011;45117;50.960;5.500;2023-04-25T05:35:41;17.33;;;5.15;;
59338;SDS011;45117;50.960;5.500;2023-04-25T05:38:08;18.05;;;4.88;;
59338;SDS011;45117;50.960;5.500;2023-04-25T05:40:36;18.33;;;4.40;;
59338;SDS011;45117;50.960;5.500;2023-04-25T05:43:02;20.95;;;5.43;;
59338;SDS011;45117;50.960;5.500;2023-04-25T05:45:29;16.63;;;4.90;;
59338;SDS011;45117;50.960;5.500;2023-04-25T05:47:55;19.52;;;4.50;;
59338;SDS011;45117;50.960;5.500;2023-04-25T05:50:22;19.08;;;5.28;;
59338;SDS011;45117;50.960;5.500;2023-04-25T05:52:49;17.70;;;4.47;;
59338;SDS011;45117;50.960;5.500;2023-04-25T05:55:16;17.98;;;4.15;;
59338;SDS011;45117;50.960;5.500;2023-04-25T05:57:44;20.95;;;4.80;;
59338;SDS011;45117;50.960;5.500;2023-04-25T06:00:11;17.00;;;4.38;;
59338;SDS011;45117;50.960;5.500;2023-04-25T06:02:40;17.67;;;4.65;;
59338;SDS011;45117;50.960;5.500;2023-04-25T06:05:08;20.17;;;5.78;;
59338;SDS011;45117;50.960;5.500;2023-04-25T06:07:34;18.70;;;5.30;;
59338;SDS011;45117;50.960;5.500;2023-04-25T06:10:01;18.48;;;4.95;;
59338;SDS011;45117;50.960;5.500;2023-04-25T06:12:28;16.80;;;4.25;;
59338;SDS011;45117;50.960;5.500;2023-04-25T06:14:56;18.60;;;4.28;;
59338;SDS011;45117;50.960;5.500;2023-04-25T06:17:23;21.67;;;4.82;;
59338;SDS011;45117;50.960;5.500;2023-04-25T06:19:49;16.27;;;4.30;;
59338;SDS011;45117;50.960;5.500;2023-04-25T06:22:15;16.30;;;4.30;;
59338;SDS011;45117;50.960;5.500;2023-04-25T06:24:42;12.55;;;3.55;;
59338;SDS011;45117;50.960;5.500;2023-04-25T06:27:08;17.52;;;4.35;;
59338;SDS011;45117;50.960;5.500;2023-04-25T06:29:35;18.05;;;4.28;;
59338;SDS011;45117;50.960;5.500;2023-04-25T06:32:03;18.00;;;4.20;;
59338;SDS011;45117;50.960;5.500;2023-04-25T06:34:30;16.17;;;4.35;;
59338;SDS011;45117;50.960;5.500;2023-04-25T06:36:56;14.32;;;3.58;;
59338;SDS011;45117;50.960;5.500;2023-04-25T06:39:23;16.23;;;3.38;;
59338;SDS011;45117;50.960;5.500;2023-04-25T06:41:50;17.77;;;4.13;;
59338;SDS011;45117;50.960;5.500;2023-04-25T06:44:16;21.75;;;3.60;;
59338;SDS011;45117;50.960;5.500;2023-04-25T06:46:43;15.98;;;3.45;;
59338;SDS011;45117;50.960;5.500;2023-04-25T06:49:11;15.98;;;3.10;;
59338;SDS011;45117;50.960;5.500;2023-04-25T06:51:37;16.15;;;3.75;;
59338;SDS011;45117;50.960;5.500;2023-04-25T06:54:04;14.20;;;3.40;;
59338;SDS011;45117;50.960;5.500;2023-04-25T06:56:31;14.73;;;3.03;;
59338;SDS011;45117;50.960;5.500;2023-04-25T06:58:57;16.08;;;3.70;;
59338;SDS011;45117;50.960;5.500;2023-04-25T07:01:25;15.73;;;4.05;;
59338;SDS011;45117;50.960;5.500;2023-04-25T07:03:51;14.90;;;3.13;;
59338;SDS011;45117;50.960;5.500;2023-04-25T07:06:19;11.48;;;3.03;;
59338;SDS011;45117;50.960;5.500;2023-04-25T07:08:46;17.13;;;3.40;;
59338;SDS011;45117;50.960;5.500;2023-04-25T07:11:12;11.82;;;2.63;;
59338;SDS011;45117;50.960;5.500;2023-04-25T07:13:39;13.55;;;3.00;;
59338;SDS011;45117;50.960;5.500;2023-04-25T07:16:05;15.23;;;2.75;;
59338;SDS011;45117;50.960;5.500;2023-04-25T07:18:32;16.20;;;3.00;;
59338;SDS011;45117;50.960;5.500;2023-04-25T07:20:58;15.32;;;2.80;;
59338;SDS011;45117;50.960;5.500;2023-04-25T07:23:26;13.95;;;2.97;;
59338;SDS011;45117;50.960;5.500;2023-04-25T07:25:53;9.77;;;2.67;;
59338;SDS011;45117;50.960;5.500;2023-04-25T07:28:19;15.40;;;2.70;;
59338;SDS011;45117;50.960;5.500;2023-04-25T07:30:46;13.48;;;2.92;;
59338;SDS011;45117;50.960;5.500;2023-04-25T07:33:12;15.57;;;3.22;;
59338;SDS011;45117;50.960;5.500;2023-04-25T07:35:39;10.50;;;2.65;;
59338;SDS011;45117;50.960;5.500;2023-04-25T07:38:06;12.30;;;2.53;;
59338;SDS011;45117;50.960;5.500;2023-04-25T07:40:34;11.98;;;2.33;;
59338;SDS011;45117;50.960;5.500;2023-04-25T07:43:00;15.88;;;2.60;;
59338;SDS011;45117;50.960;5.500;2023-04-25T07:45:27;13.40;;;2.83;;
59338;SDS011;45117;50.960;5.500;2023-04-25T07:47:53;11.60;;;2.95;;
59338;SDS011;45117;50.960;5.500;2023-04-25T07:50:20;10.80;;;2.75;;
59338;SDS011;45117;50.960;5.500;2023-04-25T07:52:47;17.00;;;2.95;;
59338;SDS011;45117;50.960;5.500;2023-04-25T07:55:13;11.60;;;2.78;;
59338;SDS011;45117;50.960;5.500;2023-04-25T07:57:41;8.13;;;2.25;;
59338;SDS011;45117;50.960;5.500;2023-04-25T08:00:08;10.55;;;2.13;;
59338;SDS011;45117;50.960;5.500;2023-04-25T08:02:36;12.25;;;2.40;;
59338;SDS011;45117;50.960;5.500;2023-04-25T08:05:03;11.07;;;2.05;;
59338;SDS011;45117;50.960;5.500;2023-04-25T08:07:33;9.63;;;1.90;;
59338;SDS011;45117;50.960;5.500;2023-04-25T08:09:59;13.23;;;2.00;;
59338;SDS011;45117;50.960;5.500;2023-04-25T08:12:26;9.25;;;1.95;;
59338;SDS011;45117;50.960;5.500;2023-04-25T08:14:53;6.43;;;1.98;;
59338;SDS011;45117;50.960;5.500;2023-04-25T08:17:20;9.18;;;1.80;;
59338;SDS011;45117;50.960;5.500;2023-04-25T08:19:46;13.63;;;1.92;;
59338;SDS011;45117;50.960;5.500;2023-04-25T08:22:13;7.22;;;1.83;;
59338;SDS011;45117;50.960;5.500;2023-04-25T08:24:40;9.00;;;2.88;;
59338;SDS011;45117;50.960;5.500;2023-04-25T08:27:07;6.57;;;1.85;;
59338;SDS011;45117;50.960;5.500;2023-04-25T08:29:33;7.43;;;1.90;;
59338;SDS011;45117;50.960;5.500;2023-04-25T08:32:02;7.88;;;2.00;;
59338;SDS011;45117;50.960;5.500;2023-04-25T08:34:28;9.82;;;1.60;;
59338;SDS011;45117;50.960;5.500;2023-04-25T08:36:55;7.13;;;1.73;;
59338;SDS011;45117;50.960;5.500;2023-04-25T08:39:21;5.95;;;1.70;;
59338;SDS011;45117;50.960;5.500;2023-04-25T08:41:48;7.70;;;1.67;;
59338;SDS011;45117;50.960;5.500;2023-04-25T08:44:14;6.53;;;1.70;;
59338;SDS011;45117;50.960;5.500;2023-04-25T08:46:42;10.82;;;1.67;;
59338;SDS011;45117;50.960;5.500;2023-04-25T08:49:15;7.18;;;1.95;;
59338;SDS011;45117;50.960;5.500;2023-04-25T08:51:43;6.05;;;1.80;;
59338;SDS011;45117;50.960;5.500;2023-04-25T08:54:13;9.13;;;1.80;;
59338;SDS011;45117;50.960;5.500;2023-04-25T08:56:41;8.68;;;1.70;;
59338;SDS011;45117;50.960;5.500;2023-04-25T08:59:11;8.45;;;1.85;;
59338;SDS011;45117;50.960;5.500;2023-04-25T09:01:37;6.18;;;1.83;;
59338;SDS011;45117;50.960;5.500;2023-04-25T09:04:04;8.07;;;2.15;;
59338;SDS011;45117;50.960;5.500;2023-04-25T09:06:32;8.75;;;2.70;;
59338;SDS011;45117;50.960;5.500;2023-04-25T09:09:01;12.20;;;3.13;;
59338;SDS011;45117;50.960;5.500;2023-04-25T09:11:30;14.13;;;3.20;;
59338;SDS011;45117;50.960;5.500;2023-04-25T09:14:09;12.05;;;3.05;;
59338;SDS011;45117;50.960;5.500;2023-04-25T09:16:40;7.68;;;2.83;;
59338;SDS011;45117;50.960;5.500;2023-04-25T09:19:24;8.88;;;2.13;;
59338;SDS011;45117;50.960;5.500;2023-04-25T09:21:54;8.23;;;2.17;;
59338;SDS011;45117;50.960;5.500;2023-04-25T09:24:29;9.82;;;2.13;;
59338;SDS011;45117;50.960;5.500;2023-04-25T09:26:57;6.60;;;1.95;;
59338;SDS011;45117;50.960;5.500;2023-04-25T09:29:28;9.75;;;2.05;;
59338;SDS011;45117;50.960;5.500;2023-04-25T09:32:08;8.07;;;1.83;;
59338;SDS011;45117;50.960;5.500;2023-04-25T09:34:38;10.45;;;2.30;;
59338;SDS011;45117;50.960;5.500;2023-04-25T09:37:07;7.60;;;1.90;;
59338;SDS011;45117;50.960;5.500;2023-04-25T09:39:36;6.28;;;2.13;;
59338;SDS011;45117;50.960;5.500;2023-04-25T09:42:03;9.98;;;2.20;;
59338;SDS011;45117;50.960;5.500;2023-04-25T09:44:30;9.70;;;2.17;;
59338;SDS011;45117;50.960;5.500;2023-04-25T09:46:56;8.20;;;2.00;;
59338;SDS011;45117;50.960;5.500;2023-04-25T09:49:24;9.00;;;2.28;;
59338;SDS011;45117;50.960;5.500;2023-04-25T09:51:55;6.75;;;1.60;;
59338;SDS011;45117;50.960;5.500;2023-04-25T09:54:24;10.18;;;2.05;;
59338;SDS011;45117;50.960;5.500;2023-04-25T09:56:51;9.40;;;2.28;;
59338;SDS011;45117;50.960;5.500;2023-04-25T09:59:19;6.78;;;1.65;;
59338;SDS011;45117;50.960;5.500;2023-04-25T10:01:46;6.18;;;1.50;;
59338;SDS011;45117;50.960;5.500;2023-04-25T10:04:15;6.03;;;1.40;;
59338;SDS011;45117;50.960;5.500;2023-04-25T10:06:45;5.93;;;1.27;;
59338;SDS011;45117;50.960;5.500;2023-04-25T10:09:14;8.32;;;1.58;;
59338;SDS011;45117;50.960;5.500;2023-04-25T10:11:44;8.55;;;1.20;;
59338;SDS011;45117;50.960;5.500;2023-04-25T10:14:12;6.88;;;1.80;;
59338;SDS011;45117;50.960;5.500;2023-04-25T10:16:39;6.88;;;1.50;;
59338;SDS011;45117;50.960;5.500;2023-04-25T10:19:07;9.57;;;1.63;;
59338;SDS011;45117;50.960;5.500;2023-04-25T10:21:34;7.63;;;1.52;;
59338;SDS011;45117;50.960;5.500;2023-04-25T10:24:04;9.52;;;2.30;;
59338;SDS011;45117;50.960;5.500;2023-04-25T10:26:31;5.07;;;1.40;;
59338;SDS011;45117;50.960;5.500;2023-04-25T10:29:00;6.93;;;1.60;;
59338;SDS011;45117;50.960;5.500;2023-04-25T10:31:28;7.95;;;1.77;;
59338;SDS011;45117;50.960;5.500;2023-04-25T10:33:55;6.82;;;1.98;;
59338;SDS011;45117;50.960;5.500;2023-04-25T10:36:23;7.28;;;1.67;;
59338;SDS011;45117;50.960;5.500;2023-04-25T10:38:52;5.65;;;1.52;;
59338;SDS011;45117;50.960;5.500;2023-04-25T10:41:20;6.60;;;1.80;;
59338;SDS011;45117;50.960;5.500;2023-04-25T10:43:48;6.25;;;1.35;;
59338;SDS011;45117;50.960;5.500;2023-04-25T10:46:17;9.15;;;1.73;;
59338;SDS011;45117;50.960;5.500;2023-04-25T10:48:48;7.47;;;1.55;;
59338;SDS011;45117;50.960;5.500;2023-04-25T10:51:16;11.13;;;1.80;;
59338;SDS011;45117;50.960;5.500;2023-04-25T10:53:44;3.80;;;1.35;;
59338;SDS011;45117;50.960;5.500;2023-04-25T10:56:11;6.32;;;1.70;;
59338;SDS011;45117;50.960;5.500;2023-04-25T10:58:42;5.35;;;1.50;;
59338;SDS011;45117;50.960;5.500;2023-04-25T11:01:09;9.80;;;1.85;;
59338;SDS011;45117;50.960;5.500;2023-04-25T11:03:39;7.80;;;1.95;;
59338;SDS011;45117;50.960;5.500;2023-04-25T11:06:09;10.02;;;2.10;;
59338;SDS011;45117;50.960;5.500;2023-04-25T11:08:47;10.48;;;2.35;;
59338;SDS011;45117;50.960;5.500;2023-04-25T11:11:15;5.53;;;1.98;;
59338;SDS011;45117;50.960;5.500;2023-04-25T11:13:42;9.73;;;2.13;;
59338;SDS011;45117;50.960;5.500;2023-04-25T11:16:09;7.18;;;2.10;;
59338;SDS011;45117;50.960;5.500;2023-04-25T11:18:36;4.40;;;1.80;;
59338;SDS011;45117;50.960;5.500;2023-04-25T11:21:04;6.35;;;1.67;;
59338;SDS011;45117;50.960;5.500;2023-04-25T11:23:32;10.55;;;2.10;;
59338;SDS011;45117;50.960;5.500;2023-04-25T11:25:58;9.90;;;2.20;;
59338;SDS011;45117;50.960;5.500;2023-04-25T11:28:26;5.72;;;1.55;;
59338;SDS011;45117;50.960;5.500;2023-04-25T11:30:53;10.25;;;2.00;;
59338;SDS011;45117;50.960;5.500;2023-04-25T11:33:22;6.53;;;2.22;;
59338;SDS011;45117;50.960;5.500;2023-04-25T11:35:49;6.60;;;1.80;;
59338;SDS011;45117;50.960;5.500;2023-04-25T11:38:17;6.00;;;1.65;;
59338;SDS011;45117;50.960;5.500;2023-04-25T11:40:44;7.43;;;1.67;;
59338;SDS011;45117;50.960;5.500;2023-04-25T11:43:15;7.43;;;1.60;;
59338;SDS011;45117;50.960;5.500;2023-04-25T11:45:42;5.97;;;1.45;;
59338;SDS011;45117;50.960;5.500;2023-04-25T11:48:12;6.93;;;1.70;;
59338;SDS011;45117;50.960;5.500;2023-04-25T11:50:39;6.43;;;1.20;;
59338;SDS011;45117;50.960;5.500;2023-04-25T11:53:05;8.27;;;1.50;;
59338;SDS011;45117;50.960;5.500;2023-04-25T11:55:34;4.13;;;1.25;;
59338;SDS011;45117;50.960;5.500;2023-04-25T11:58:02;3.20;;;1.05;;
59338;SDS011;45117;50.960;5.500;2023-04-25T12:00:30;9.23;;;1.60;;
59338;SDS011;45117;50.960;5.500;2023-04-25T12:02:57;4.35;;;1.52;;
59338;SDS011;45117;50.960;5.500;2023-04-25T12:05:24;4.47;;;1.30;;
59338;SDS011;45117;50.960;5.500;2023-04-25T12:07:52;7.10;;;1.35;;
59338;SDS011;45117;50.960;5.500;2023-04-25T12:10:19;6.35;;;1.38;;
59338;SDS011;45117;50.960;5.500;2023-04-25T12:12:47;4.93;;;1.17;;
59338;SDS011;45117;50.960;5.500;2023-04-25T12:15:15;4.93;;;1.25;;
59338;SDS011;45117;50.960;5.500;2023-04-25T12:17:44;5.05;;;1.30;;
59338;SDS011;45117;50.960;5.500;2023-04-25T12:20:13;6.68;;;1.40;;
59338;SDS011;45117;50.960;5.500;2023-04-25T12:22:41;4.68;;;1.40;;
59338;SDS011;45117;50.960;5.500;2023-04-25T12:25:10;4.20;;;1.10;;
59338;SDS011;45117;50.960;5.500;2023-04-25T12:27:37;4.70;;;1.42;;
59338;SDS011;45117;50.960;5.500;2023-04-25T12:30:07;5.07;;;2.03;;
59338;SDS011;45117;50.960;5.500;2023-04-25T12:32:34;3.85;;;1.20;;
59338;SDS011;45117;50.960;5.500;2023-04-25T12:35:00;4.13;;;0.95;;
59338;SDS011;45117;50.960;5.500;2023-04-25T12:37:28;5.43;;;1.40;;
59338;SDS011;45117;50.960;5.500;2023-04-25T12:39:55;4.63;;;1.38;;
59338;SDS011;45117;50.960;5.500;2023-04-25T12:42:21;6.68;;;1.23;;
59338;SDS011;45117;50.960;5.500;2023-04-25T12:44:47;4.05;;;1.02;;
59338;SDS011;45117;50.960;5.500;2023-04-25T12:47:15;5.90;;;1.20;;
59338;SDS011;45117;50.960;5.500;2023-04-25T12:49:42;5.40;;;1.10;;
59338;SDS011;45117;50.960;5.500;2023-04-25T12:52:08;6.07;;;1.25;;
59338;SDS011;45117;50.960;5.500;2023-04-25T12:54:35;5.22;;;1.30;;
59338;SDS011;45117;50.960;5.500;2023-04-25T12:57:02;5.03;;;1.15;;
59338;SDS011;45117;50.960;5.500;2023-04-25T12:59:28;3.85;;;1.17;;
59338;SDS011;45117;50.960;5.500;2023-04-25T13:01:55;3.88;;;1.10;;
59338;SDS011;45117;50.960;5.500;2023-04-25T13:04:23;4.20;;;1.20;;
59338;SDS011;45117;50.960;5.500;2023-04-25T13:06:50;4.78;;;1.48;;
59338;SDS011;45117;50.960;5.500;2023-04-25T13:09:16;3.08;;;1.00;;
59338;SDS011;45117;50.960;5.500;2023-04-25T13:11:43;3.75;;;0.95;;
59338;SDS011;45117;50.960;5.500;2023-04-25T13:14:10;7.40;;;1.20;;
59338;SDS011;45117;50.960;5.500;2023-04-25T13:16:36;5.85;;;1.10;;
59338;SDS011;45117;50.960;5.500;2023-04-25T13:19:03;4.38;;;1.30;;
59338;SDS011;45117;50.960;5.500;2023-04-25T13:21:31;4.55;;;1.27;;
59338;SDS011;45117;50.960;5.500;2023-04-25T13:23:58;4.25;;;1.30;;
59338;SDS011;45117;50.960;5.500;2023-04-25T13:26:25;7.13;;;1.30;;
59338;SDS011;45117;50.960;5.500;2023-04-25T13:28:52;2.35;;;1.15;;
59338;SDS011;45117;50.960;5.500;2023-04-25T13:31:18;5.20;;;1.10;;
59338;SDS011;45117;50.960;5.500;2023-04-25T13:33:44;3.38;;;1.00;;
59338;SDS011;45117;50.960;5.500;2023-04-25T13:36:11;3.85;;;1.05;;
59338;SDS011;45117;50.960;5.500;2023-04-25T13:38:39;6.10;;;1.20;;
59338;SDS011;45117;50.960;5.500;2023-04-25T13:41:09;4.40;;;1.17;;
59338;SDS011;45117;50.960;5.500;2023-04-25T13:43:41;3.88;;;1.20;;
59338;SDS011;45117;50.960;5.500;2023-04-25T13:46:07;4.85;;;1.20;;
59338;SDS011;45117;50.960;5.500;2023-04-25T13:48:34;5.90;;;1.48;;
59338;SDS011;45117;50.960;5.500;2023-04-25T13:51:01;5.07;;;1.10;;
59338;SDS011;45117;50.960;5.500;2023-04-25T13:53:27;4.00;;;1.00;;
59338;SDS011;45117;50.960;5.500;2023-04-25T13:55:55;4.32;;;0.85;;
59338;SDS011;45117;50.960;5.500;2023-04-25T13:58:22;4.57;;;1.00;;
59338;SDS011;45117;50.960;5.500;2023-04-25T14:00:48;4.07;;;1.10;;
59338;SDS011;45117;50.960;5.500;2023-04-25T14:03:15;4.13;;;0.90;;
59338;SDS011;45117;50.960;5.500;2023-04-25T14:05:41;3.42;;;0.90;;
59338;SDS011;45117;50.960;5.500;2023-04-25T14:08:08;4.97;;;1.30;;
59338;SDS011;45117;50.960;5.500;2023-04-25T14:10:35;6.75;;;0.90;;
59338;SDS011;45117;50.960;5.500;2023-04-25T14:13:04;4.88;;;1.10;;
59338;SDS011;45117;50.960;5.500;2023-04-25T14:15:32;5.72;;;1.13;;
59338;SDS011;45117;50.960;5.500;2023-04-25T14:17:59;3.95;;;0.93;;
59338;SDS011;45117;50.960;5.500;2023-04-25T14:20:26;3.15;;;0.90;;
59338;SDS011;45117;50.960;5.500;2023-04-25T14:22:53;4.95;;;1.00;;
59338;SDS011;45117;50.960;5.500;2023-04-25T14:25:21;4.65;;;1.25;;
59338;SDS011;45117;50.960;5.500;2023-04-25T14:27:47;3.95;;;0.95;;
59338;SDS011;45117;50.960;5.500;2023-04-25T14:30:16;4.82;;;0.85;;
59338;SDS011;45117;50.960;5.500;2023-04-25T14:32:43;3.88;;;0.95;;
59338;SDS011;45117;50.960;5.500;2023-04-25T14:35:10;3.92;;;1.10;;
59338;SDS011;45117;50.960;5.500;2023-04-25T14:37:37;5.18;;;1.20;;
59338;SDS011;45117;50.960;5.500;2023-04-25T14:40:04;4.32;;;0.90;;
59338;SDS011;45117;50.960;5.500;2023-04-25T14:42:33;1.90;;;0.70;;